»·PEaware :: N915MA KGPI-KHLN

N915MA :: KGPI-KHLN

FLIGHT INFORMATION

Flight Status: Arrived
Operator: Privately registered:
United States
More flights under this callsign
Pilot: Logan D. (20254)
Aircraft: Unknown
(KODI)
More flights by this aircraft type
Origin: KGPI Glacier Park Intl
United States
Destination: KHLN Helena Regl
United States
More flights between these airports :: More routes between these airports
Route: KGPI PIXXI KHLN
File this flight plan on PilotEdge
Remarks: +CW / +FF
Altitude:
(Current/Filed)
11,500ft
Speed:
(Current/Filed)
150kts
Departed: 15-May-19 04:47 PM
Arrived: 15-May-19 05:52 PM
Distance/Time
Traveled:
138nm/1:05
Distance/Time
To Go:
Arrived

Flight Plot

Page will automatically refresh every two minutes.

Flight plan parsing failed; only flown route is shown


Map Options




Map Legend


Flown Route
Filed Route
Departure Airport
Arrival Airport
Navaid (VOR, NDB)
Fix

Horizontal Profiles

Position Reports

Time Latitude Longitude Heading Altitude Ground
Speed
15-May-19 16:31 48.309895 -114.252603 60 2981ft 0kts
15-May-19 16:32 48.309895 -114.252603 60 2981ft 0kts
15-May-19 16:33 48.309895 -114.252603 60 2981ft 0kts
15-May-19 16:34 48.309895 -114.252603 60 2981ft 0kts
15-May-19 16:35 48.309895 -114.252603 60 2981ft 0kts
15-May-19 16:36 48.309895 -114.252603 60 2981ft 0kts
15-May-19 16:37 48.309895 -114.252603 60 2981ft 0kts
15-May-19 16:38 48.309895 -114.252603 60 2981ft 0kts
15-May-19 16:39 48.309895 -114.252603 60 2981ft 0kts
15-May-19 16:40 48.309895 -114.252603 60 2981ft 0kts
15-May-19 16:41 48.309896 -114.252602 60 2981ft 0kts
15-May-19 16:42 48.310369 -114.253559 215 2981ft 10kts
15-May-19 16:43 48.305142 -114.258976 215 2981ft 25kts
15-May-19 16:44 48.299522 -114.264831 215 2982ft 24kts
15-May-19 16:45 48.299316 -114.267177 34 2981ft 0kts
15-May-19 16:46 48.314814 -114.250168 40 3350ft 115kts
15-May-19 16:47 48.324440 -114.210520 138 5089ft 128kts
15-May-19 16:48 48.284733 -114.210346 188 6033ft 155kts
15-May-19 16:49 48.243633 -114.193691 147 7060ft 150kts
15-May-19 16:50 48.208262 -114.170684 158 8274ft 132kts
15-May-19 16:51 48.175287 -114.152063 159 9555ft 122kts
15-May-19 16:52 48.145713 -114.134714 157 10810ft 105kts
15-May-19 16:53 48.113248 -114.115218 157 11517ft 161kts
15-May-19 16:54 48.075260 -114.071467 139 11501ft 177kts
15-May-19 16:55 48.037139 -114.024014 139 11500ft 179kts
15-May-19 16:56 47.998569 -113.976006 139 11500ft 181kts
15-May-19 16:57 47.957133 -113.933193 155 11498ft 181kts
15-May-19 16:58 47.910722 -113.903643 158 11500ft 181kts
15-May-19 16:59 47.879854 -113.887268 161 11500ft 181kts
15-May-19 17:00 47.831541 -113.865059 162 11500ft 181kts
15-May-19 17:01 47.783243 -113.843041 162 11500ft 181kts
15-May-19 17:02 47.735908 -113.821412 162 11498ft 173kts
15-May-19 17:03 47.689979 -113.800404 162 11499ft 172kts
15-May-19 17:04 47.644234 -113.779485 162 11500ft 172kts
15-May-19 17:05 47.598786 -113.758700 162 11500ft 171kts
15-May-19 17:06 47.553157 -113.737829 162 11500ft 172kts
15-May-19 17:07 47.507525 -113.716954 162 11500ft 172kts
15-May-19 17:08 47.461694 -113.695984 162 11500ft 172kts
15-May-19 17:09 47.416166 -113.674989 158 11500ft 172kts
15-May-19 17:10 47.375929 -113.637533 141 11501ft 171kts
15-May-19 17:11 47.339269 -113.592380 139 11500ft 172kts
15-May-19 17:12 47.302504 -113.547005 139 11500ft 172kts
15-May-19 17:13 47.271804 -113.508804 139 11509ft 141kts
15-May-19 17:14 47.239793 -113.469216 139 11501ft 154kts
15-May-19 17:15 47.206603 -113.428120 139 11500ft 155kts
15-May-19 17:16 47.176277 -113.390558 139 11500ft 156kts
15-May-19 17:18 47.142594 -113.348867 139 11500ft 160kts
15-May-19 17:19 47.108405 -113.306540 139 11500ft 160kts
15-May-19 17:20 47.087604 -113.253359 95 11502ft 160kts
15-May-19 17:21 47.081547 -113.188328 98 11500ft 160kts
15-May-19 17:22 47.074132 -113.123506 99 11500ft 160kts
15-May-19 17:23 47.066479 -113.058906 99 11500ft 160kts
15-May-19 17:24 47.058735 -112.994180 99 11500ft 160kts
15-May-19 17:25 47.050958 -112.929552 99 11500ft 160kts
15-May-19 17:26 47.043149 -112.864984 99 11500ft 161kts
15-May-19 17:27 47.035278 -112.800231 99 11500ft 161kts
15-May-19 17:28 47.027342 -112.735262 99 11500ft 161kts
15-May-19 17:29 47.019402 -112.670572 99 11500ft 161kts
15-May-19 17:30 47.011342 -112.605526 99 11500ft 161kts
15-May-19 17:31 47.002210 -112.541123 102 11500ft 161kts
15-May-19 17:32 46.990374 -112.477684 106 11499ft 161kts
15-May-19 17:33 46.975795 -112.415242 109 11500ft 161kts
15-May-19 17:34 46.958594 -112.354376 113 11500ft 162kts
15-May-19 17:35 46.938619 -112.294822 117 11500ft 163kts
15-May-19 17:36 46.922345 -112.233067 108 11500ft 163kts
15-May-19 17:37 46.883995 -112.204336 158 11500ft 163kts
15-May-19 17:38 46.842721 -112.175183 150 10658ft 166kts
15-May-19 17:39 46.803285 -112.140798 147 9493ft 157kts
15-May-19 17:39 46.774294 -112.113848 147 8901ft 149kts
15-May-19 17:41 46.733338 -112.074926 146 7507ft 145kts
15-May-19 17:42 46.707944 -112.040255 124 7145ft 126kts
15-May-19 17:42 46.697420 -112.000403 101 6564ft 123kts
15-May-19 17:44 46.690261 -111.946328 110 5728ft 116kts
15-May-19 17:44 46.676856 -111.908235 121 5487ft 135kts
15-May-19 17:45 46.655747 -111.861724 122 5232ft 138kts
15-May-19 17:46 46.624532 -111.847582 188 5335ft 119kts
15-May-19 17:47 46.592608 -111.862589 223 5399ft 119kts
15-May-19 17:49 46.596451 -111.919018 282 4816ft 100kts
15-May-19 17:49 46.600628 -111.948156 281 4299ft 87kts
15-May-19 17:50 46.605018 -111.976003 283 3880ft 41kts
15-May-19 17:51 46.605597 -111.984777 189 3880ft 8kts
15-May-19 17:52 46.603498 -111.984656 267 3880ft 16kts
15-May-19 17:53 46.603113 -111.987415 270 3880ft 0kts
15-May-19 17:54 46.603113 -111.987415 270 3879ft 0kts
15-May-19 17:55 46.603113 -111.987415 270 3879ft 0kts
15-May-19 17:56 46.603113 -111.987415 270 3879ft 0kts
15-May-19 17:57 46.603113 -111.987415 270 3879ft 0kts
15-May-19 17:58 46.603113 -111.987415 270 3879ft 0kts
15-May-19 17:59 46.603113 -111.987415 270 3879ft 0kts
15-May-19 18:00 46.603113 -111.987415 270 3879ft 0kts
15-May-19 18:01 46.603113 -111.987415 270 3879ft 0kts
15-May-19 18:02 46.603113 -111.987415 270 3879ft 0kts
15-May-19 18:03 46.603113 -111.987415 270 3879ft 0kts
15-May-19 18:04 46.603113 -111.987415 270 3879ft 0kts
15-May-19 18:05 46.603113 -111.987415 270 3879ft 0kts

Navigation Log

Ident Type
Flight plan parsing failed, navigation log unavailable